LZSL METAR and TAF | Updated Today

LZSL METAR

Sliač Airport

Sliač Airport (LZSL) hasn't published a METAR.
We found the following current weather conditions for Tri Duby from other sources.

Sliač Airport (LZSL) METAR

  • Weather conditions right now at LZSL:
  • Present conditions: Clear
  • Clouds: Clear sky
  • Cloud cover: 6%
  • Wind: 17 at 4kts
  • Temperature: -11.8 celsius
  • Feels like: -16.3 celsius
  • Pressure: 1040mb
  • Humidity: 94%


Useful to know...

LZSL TAF

Sliač Airport

TAF LZSL 051630Z 0518/0606 VRB02KT CAVOK
Observation time: 4:29 hr. ago
Need help? Read our tutorial on how to read TAFs or read the parsed version below.

Parsed version of TAF for Sliač Airport (LZSL)

  • From 05 February at 18:00 UTC, to day 06 of the month at 06:00 UTC
  • Visibility: Greater than 10 km
  • Wind: Variable at 2

Airports near LZSL

LZLU Weather
Region: Lučenec

Lučenec Airport

Not found in our database
LZZI Weather
IATA: ILZ
Region: Žilina

Žilina Airport

Found in our database